ENDU

Bardufoss Airport

Målselv, Norway
METAR ENDU 190850Z 13007KT 060V180 9999 FEW040 SCT150 BKN220 11/03 Q0997 TEMPO 12015G25KT RMK WIND 1100FT 08004KT WIND 2200FT 14020KT
Observed Flight Rules
Sep-19 @ 08:50 UTC (37 minutes ago) Visual Flight Rules
Wind Visibility Clouds
130° at 7 knots 10,000+ meters
  • Few at 4,000' AGL
  • Scattered at 15,000' AGL
  • Broken at 22,000' AGL
Temperatures Readings
Current 11°C / 52°F
Dewpoint 3°C / 37°F
Humidity 58%
Altimeter 29.44" Hg
Pressure 997 hPa
Elevation 79
METAR ENDU 190850Z 13007KT 060V180 9999 FEW040 SCT150 BKN220 11/03 Q0997 TEMPO 12015G25KT RMK WIND 1100FT 08004KT WIND 2200FT 14020KT
Observed Flight Rules
Sep-19 @ 08:50 UTC
(37 minutes ago)
VFR
Wind Visibility
130° at 7 knots 10,000+ meters
Clouds
  • Few at 4,000' AGL
  • Scattered at 15,000' AGL
  • Broken at 22,000' AGL
Temperature Dewpoint
11°C / 52°F 3°C / 37°F
Humidity Altimeter Pressure
58% 29.44" Hg 997 hPa